Tropical Cyclones
[Index]
Main Index Home Page Stock Weather Photos Extreme Storms Discussion Storm News and Storm Chasing Reports Tropical Cyclones / Hurricanes / Typhoons Weather Data and Links Wild Fires / Bushfires Weather Observation Techniques Weather Picture Catalogue Tornado Pictures and Reports Stock Video Footage and DVDs for sale
Season 1997-1998 Tropical Cyclone VICTOR-CINDY Track Map
Season 1997-1998 Summaries: [BoM-AU] [JTWC-AU] [JTWC-SIO] [JTWC-SPAC] [JTWC-SH]
<<- Previous TC | JTWC 1997-1998 Season | Next TC ->>

click for intensity scale information  Lat/long Grid: Show Hide

 Date Labels: Show Hide

Joint Typhoon Warning Centre Cyclone Data

Name: VICTOR-CINDY

04 Feb 1998 18:00 UTC to 18 Feb 1998 18:00 UTC

    date/time    lat    long     hPa   cat  kts
1998-02-04 18   13.1   135.2                  15          
1998-02-05 00   13.1   134.2                  15          
1998-02-05 06   13.1   133.3                  15          
1998-02-05 12   13.1   132.4                  15          
1998-02-05 18   13.1   131.7                  20          
1998-02-06 00   13.1   131.0                  20          
1998-02-06 06   13.2   130.3                  20          
1998-02-06 12   13.4   129.6                  25          
1998-02-06 18   13.6   129.0                  25          
1998-02-07 00   13.7   128.5                  25          
1998-02-07 06   14.0   128.2                  25          
1998-02-07 12   14.1   127.7                  25          
1998-02-07 18   14.1   127.2                  25          
1998-02-08 00   14.1   126.4                  25          
1998-02-08 06   14.2   125.7                  30          
1998-02-08 12   14.2   125.2                  30          
1998-02-08 18   14.3   124.7                  30          
1998-02-09 00   14.4   124.1                  30          
1998-02-09 06   14.8   123.2                  30          
1998-02-09 12   15.1   122.3                  30          
1998-02-09 18   15.4   121.5                  30          
1998-02-10 00   15.7   120.6                  35          
1998-02-10 06   15.7   119.5            1     40          
1998-02-10 12   15.7   118.8            1     45          
1998-02-10 18   15.6   118.2            1     45          
1998-02-11 00   15.5   117.5            1     50          
1998-02-11 06   15.3   116.6            1     50          
1998-02-11 12   15.0   115.4            1     50          
1998-02-11 18   14.9   114.2            1     50          
1998-02-12 00   14.9   113.2            2     55          
1998-02-12 06   15.1   112.2            2     60          
1998-02-12 12   15.6   111.3            2     70          
1998-02-12 18   16.3   110.2            3     80          
1998-02-13 00   16.8   108.9            3     90          
1998-02-13 06   17.3   107.6            3     90          
1998-02-13 12   17.6   106.3            3     90          
1998-02-13 18   17.8   104.9            3     85          
1998-02-14 00   18.0   103.6            2     70          
1998-02-14 06   18.1   101.9            2     60          
1998-02-14 12   18.5   100.1            2     55          
1998-02-14 18   19.0    98.2            2     55          
1998-02-15 00   19.6    96.3            1     45          
1998-02-15 06   19.9    94.4            1     40          
1998-02-15 12   20.3    93.0            1     40          
1998-02-15 18   20.8    91.5            1     40          
1998-02-16 00   21.0    90.0            1     40          
1998-02-16 06   21.3    88.4                  35          
1998-02-16 12   21.5    86.8                  35          
1998-02-16 18   21.5    85.0                  35          
1998-02-17 00   21.5    83.3                  35          
1998-02-17 06   21.7    81.6                  35          
1998-02-17 12   21.8    79.9                  35          
1998-02-17 18   22.2    78.1                  35          
1998-02-18 00   22.8    76.6                  35          
1998-02-18 06   23.8    75.7                  35          
1998-02-18 12   25.3    74.9                  35          
1998-02-18 18   27.1    74.5                  30          
Winds are 1-min average.

Tropical cyclone tracks developed by Michael Bath using data from the Joint Typhoon Warning Centre Best Tracks and Google Maps.


[Australian Severe Weather index] [Copyright Notice] [Email Contacts] [Search This Site] [Privacy Policy]
Document: tropical_cyclone_victor-cindy.htm Updated: 18 September 2016